Time;durP1;ratioP1;P1;durP2;ratioP2;P2;SDS_P1;SDS_P2;PMS_P1;PMS_P2;Temp;Humidity;BMP_temperature;BMP_pressure;BME280_temperature;BME280_humidity;BME280_pressure;Samples;Min_cycle;Max_cycle;Signal;HPM_P1;HPM_P2
2021/11/14 00:00:01;;;;;;;51.92;24.67;;;3.30;99.90;;;;;;5015873;28;20164;-38
2021/11/14 00:02:26;;;;;;;40.53;21.20;;;3.40;99.90;;;;;;5015630;28;20033;-38
2021/11/14 00:04:52;;;;;;;57.33;26.25;;;3.50;99.90;;;;;;5015900;28;20381;-40
2021/11/14 00:07:18;;;;;;;45.88;24.63;;;3.50;99.90;;;;;;5015669;28;20070;-41
2021/11/14 00:09:44;;;;;;;45.50;22.30;;;3.60;99.90;;;;;;5015137;28;20030;-40
2021/11/14 00:12:10;;;;;;;40.17;20.67;;;3.70;99.90;;;;;;5015623;28;20520;-39
2021/11/14 00:14:36;;;;;;;41.65;20.85;;;3.70;99.90;;;;;;5015539;28;20041;-40
2021/11/14 00:17:01;;;;;;;42.80;21.88;;;3.70;99.90;;;;;;5015375;28;20026;-38
2021/11/14 00:19:27;;;;;;;41.28;20.42;;;3.80;99.90;;;;;;5015508;28;20068;-38
2021/11/14 00:21:52;;;;;;;38.67;20.23;;;3.80;99.90;;;;;;5015549;28;20030;-39
2021/11/14 00:24:18;;;;;;;42.20;21.80;;;3.90;99.90;;;;;;5014502;28;20434;-38
2021/11/14 00:26:44;;;;;;;35.97;19.98;;;3.90;99.90;;;;;;5015417;28;20026;-38
2021/11/14 00:29:11;;;;;;;40.22;20.77;;;4.00;99.90;;;;;;5015303;28;20393;-38
2021/11/14 00:31:38;;;;;;;41.30;20.38;;;4.00;99.90;;;;;;5015201;28;20034;-38
2021/11/14 00:34:05;;;;;;;34.60;19.83;;;4.10;99.90;;;;;;5015141;28;20128;-38
2021/11/14 00:36:32;;;;;;;31.67;17.60;;;4.10;99.90;;;;;;5015129;28;20474;-38
2021/11/14 00:38:59;;;;;;;38.72;19.80;;;4.10;99.90;;;;;;5014161;28;20030;-38
2021/11/14 00:41:25;;;;;;;43.28;21.63;;;4.20;99.90;;;;;;5014996;28;20057;-38
2021/11/14 00:43:52;;;;;;;38.00;21.08;;;4.20;99.90;;;;;;5015073;28;20060;-38
2021/11/14 00:46:19;;;;;;;39.85;22.20;;;4.20;99.90;;;;;;5014795;28;20462;-38
2021/11/14 00:48:45;;;;;;;39.58;21.15;;;4.30;99.90;;;;;;5015035;28;20029;-41
2021/11/14 00:51:13;;;;;;;36.15;18.80;;;4.30;99.90;;;;;;5014829;28;20038;-41
2021/11/14 00:53:39;;;;;;;36.25;19.63;;;4.30;99.90;;;;;;5013134;28;20037;-40
2021/11/14 00:56:05;;;;;;;36.53;20.13;;;4.40;99.90;;;;;;5014780;28;20053;-40
2021/11/14 00:58:30;;;;;;;40.58;21.92;;;4.40;99.90;;;;;;5014625;28;20022;-43
2021/11/14 01:00:56;;;;;;;41.30;20.85;;;4.40;99.90;;;;;;5014749;28;20512;-41
2021/11/14 01:03:23;;;;;;;36.47;19.20;;;4.40;99.90;;;;;;5014619;28;20104;-39
2021/11/14 01:05:49;;;;;;;42.13;20.45;;;4.50;99.90;;;;;;5014759;28;20029;-41
2021/11/14 01:08:15;;;;;;;34.35;20.23;;;4.50;99.90;;;;;;5014488;28;20026;-40
2021/11/14 01:10:44;;;;;;;33.28;18.83;;;4.60;99.90;;;;;;5013694;28;20034;-39
2021/11/14 01:13:10;;;;;;;30.67;16.13;;;4.50;99.90;;;;;;5014398;28;20152;-38
2021/11/14 01:15:37;;;;;;;27.17;16.15;;;4.60;99.90;;;;;;5014543;28;20125;-41
2021/11/14 01:18:03;;;;;;;35.00;19.25;;;4.60;99.90;;;;;;5014461;28;20405;-44
2021/11/14 01:20:33;;;;;;;28.20;16.25;;;4.60;99.90;;;;;;5014340;28;20022;-41
2021/11/14 01:23:00;;;;;;;30.90;17.40;;;4.70;99.90;;;;;;5014439;28;20022;-38
2021/11/14 01:25:26;;;;;;;35.42;18.25;;;4.70;99.90;;;;;;5013232;28;20036;-43
2021/11/14 01:27:52;;;;;;;30.02;15.88;;;4.70;99.90;;;;;;5014166;28;20116;-41
2021/11/14 01:30:22;;;;;;;31.08;16.00;;;4.80;99.90;;;;;;5014073;28;20030;-38
2021/11/14 01:32:48;;;;;;;29.75;18.20;;;4.80;99.90;;;;;;5014092;28;20560;-38
2021/11/14 01:35:14;;;;;;;33.65;18.70;;;4.90;99.90;;;;;;5013963;28;20107;-39
2021/11/14 01:37:43;;;;;;;36.58;17.35;;;4.80;99.90;;;;;;5014514;28;20053;-39
2021/11/14 01:40:12;;;;;;;28.05;15.57;;;4.90;99.90;;;;;;5013525;28;20393;-40
2021/11/14 01:42:38;;;;;;;27.73;15.30;;;4.90;99.90;;;;;;5014222;28;20018;-40
2021/11/14 01:45:05;;;;;;;27.70;14.52;;;5.00;99.90;;;;;;5013850;28;20406;-40
2021/11/14 01:47:30;;;;;;;26.27;15.10;;;5.00;99.90;;;;;;5046290;28;20079;-39
2021/11/14 01:49:56;;;;;;;27.77;15.82;;;5.00;99.90;;;;;;5014412;28;20113;-39
2021/11/14 01:52:25;;;;;;;32.25;16.50;;;5.00;99.90;;;;;;5014051;28;20496;-41
2021/11/14 01:54:51;;;;;;;29.73;15.65;;;5.00;99.90;;;;;;5012684;28;20030;-41
2021/11/14 01:57:16;;;;;;;29.55;17.13;;;5.00;99.90;;;;;;5013533;28;20136;-38
2021/11/14 01:59:42;;;;;;;27.55;16.30;;;5.00;99.90;;;;;;5013721;28;20037;-38
2021/11/14 02:02:08;;;;;;;25.45;14.82;;;5.00;99.90;;;;;;5013624;28;20101;-42
2021/11/14 02:04:34;;;;;;;31.30;17.42;;;5.00;99.90;;;;;;5013891;28;20025;-38
2021/11/14 02:06:59;;;;;;;32.10;16.42;;;5.00;99.90;;;;;;5014084;28;20133;-38
2021/11/14 02:09:25;;;;;;;21.67;13.35;;;5.10;99.90;;;;;;5012971;28;20108;-38
2021/11/14 02:11:51;;;;;;;24.83;13.80;;;5.10;99.90;;;;;;5013763;28;20034;-39
2021/11/14 02:14:16;;;;;;;25.25;14.95;;;5.10;99.90;;;;;;5013250;28;20029;-38
2021/11/14 02:16:42;;;;;;;23.98;13.73;;;5.10;99.90;;;;;;5013415;28;20057;-38
2021/11/14 02:19:09;;;;;;;21.67;11.98;;;5.20;99.90;;;;;;5013265;28;20036;-38
2021/11/14 02:21:34;;;;;;;28.27;14.65;;;5.20;99.90;;;;;;5013147;28;20033;-38
2021/11/14 02:24:01;;;;;;;26.27;13.57;;;5.20;99.90;;;;;;5012322;28;20516;-38
2021/11/14 02:26:27;;;;;;;28.33;13.70;;;5.20;99.90;;;;;;5012981;28;20033;-38
2021/11/14 02:28:53;;;;;;;18.35;11.40;;;5.30;99.90;;;;;;5013154;28;20026;-38
2021/11/14 02:31:21;;;;;;;23.88;11.77;;;5.30;99.90;;;;;;5012970;28;20493;-38
2021/11/14 02:33:47;;;;;;;23.65;12.55;;;5.40;99.90;;;;;;5013006;28;20056;-38
2021/11/14 02:36:12;;;;;;;23.88;11.75;;;5.40;99.90;;;;;;5013522;28;20081;-44
2021/11/14 02:38:39;;;;;;;24.27;12.32;;;5.40;99.90;;;;;;5012346;28;20034;-40
2021/11/14 02:41:05;;;;;;;22.13;11.73;;;5.50;99.90;;;;;;5013391;28;20025;-37
2021/11/14 02:43:31;;;;;;;21.23;11.32;;;5.50;99.90;;;;;;5012779;28;20030;-38
2021/11/14 02:45:56;;;;;;;23.98;11.77;;;5.60;99.90;;;;;;5012789;28;20096;-38
2021/11/14 02:48:23;;;;;;;21.08;10.73;;;5.60;99.90;;;;;;5012732;28;20040;-41
2021/11/14 02:50:51;;;;;;;22.25;11.70;;;5.60;99.90;;;;;;5012727;28;20385;-39
2021/11/14 02:53:17;;;;;;;24.98;13.35;;;5.70;99.90;;;;;;5012302;28;20037;-42
2021/11/14 02:55:44;;;;;;;20.73;11.57;;;5.70;99.90;;;;;;5011667;28;20088;-39
2021/11/14 02:58:10;;;;;;;21.10;10.77;;;5.70;99.90;;;;;;5012557;28;20044;-41
2021/11/14 03:00:43;;;;;;;24.60;13.07;;;5.80;99.90;;;;;;5012582;28;20037;-41
2021/11/14 03:03:09;;;;;;;23.38;12.52;;;5.70;99.90;;;;;;5012422;28;20121;-40
2021/11/14 03:05:37;;;;;;;22.60;12.20;;;5.70;99.90;;;;;;5012538;28;20097;-41
2021/11/14 03:08:04;;;;;;;27.42;13.13;;;5.70;99.90;;;;;;5012944;28;20036;-38
2021/11/14 03:10:31;;;;;;;22.17;12.07;;;5.70;99.90;;;;;;5011917;28;20076;-39
2021/11/14 03:13:00;;;;;;;18.67;10.27;;;5.70;99.90;;;;;;5012937;28;20385;-42
2021/11/14 03:15:27;;;;;;;23.63;11.95;;;5.70;99.90;;;;;;5012704;28;20026;-43
2021/11/14 03:17:53;;;;;;;18.48;10.93;;;5.80;99.90;;;;;;5012421;28;20389;-39
2021/11/14 03:20:18;;;;;;;20.55;11.15;;;5.80;99.90;;;;;;5012678;28;20026;-40
2021/11/14 03:22:44;;;;;;;21.50;13.13;;;5.80;99.90;;;;;;5012529;28;20026;-40
2021/11/14 03:25:10;;;;;;;18.42;10.02;;;5.80;99.90;;;;;;5011216;28;20507;-39
2021/11/14 03:27:35;;;;;;;19.67;11.00;;;5.80;99.90;;;;;;5012071;28;20076;-41
2021/11/14 03:30:01;;;;;;;20.05;11.60;;;5.90;99.90;;;;;;5012147;28;20033;-39
2021/11/14 03:32:27;;;;;;;21.25;10.85;;;5.90;99.90;;;;;;5016985;28;20056;-39
2021/11/14 03:34:52;;;;;;;26.65;12.10;;;5.90;99.90;;;;;;5012019;28;20109;-39
2021/11/14 03:37:20;;;;;;;19.02;10.68;;;6.00;99.90;;;;;;5011713;28;20113;-40
2021/11/14 03:39:47;;;;;;;24.48;12.55;;;6.00;99.90;;;;;;5011240;28;20771;-38
2021/11/14 03:42:13;;;;;;;18.08;10.55;;;6.00;99.90;;;;;;5012064;28;20054;-39
2021/11/14 03:44:40;;;;;;;22.92;11.02;;;6.00;99.90;;;;;;5011780;28;20053;-39
2021/11/14 03:47:07;;;;;;;20.10;10.63;;;6.00;99.90;;;;;;5011946;28;20026;-39
2021/11/14 03:49:33;;;;;;;20.67;11.85;;;6.00;99.90;;;;;;5011734;28;20065;-38
2021/11/14 03:51:59;;;;;;;20.95;11.35;;;6.00;99.90;;;;;;5011894;28;20018;-38
2021/11/14 03:54:25;;;;;;;24.30;12.27;;;6.00;99.90;;;;;;5010853;28;20029;-38
2021/11/14 03:56:50;;;;;;;21.30;11.02;;;5.90;99.90;;;;;;5011869;28;20525;-39
2021/11/14 03:59:16;;;;;;;19.50;11.60;;;5.90;99.90;;;;;;5011614;28;20485;-38
2021/11/14 04:01:42;;;;;;;22.88;11.80;;;5.80;99.90;;;;;;5011842;28;20061;-38
2021/11/14 04:04:07;;;;;;;23.88;12.27;;;5.80;99.90;;;;;;5011718;28;20029;-38
2021/11/14 04:06:33;;;;;;;22.27;11.63;;;5.70;99.90;;;;;;5011573;28;20026;-38
2021/11/14 04:09:00;;;;;;;19.80;10.93;;;5.60;99.90;;;;;;5010641;28;20034;-38
2021/11/14 04:11:25;;;;;;;23.02;12.52;;;5.50;99.90;;;;;;5012420;28;20026;-41
2021/11/14 04:13:52;;;;;;;24.13;11.48;;;5.50;99.90;;;;;;5011698;28;20108;-38
2021/11/14 04:16:19;;;;;;;20.92;10.77;;;5.40;99.90;;;;;;5011630;28;20037;-39
2021/11/14 04:18:45;;;;;;;20.33;11.45;;;5.30;99.90;;;;;;5011432;28;20025;-38
2021/11/14 04:21:11;;;;;;;23.00;10.75;;;5.30;99.90;;;;;;5011710;28;20394;-38
2021/11/14 04:23:38;;;;;;;18.05;10.20;;;5.20;99.90;;;;;;5010125;28;20108;-40
2021/11/14 04:26:05;;;;;;;23.42;10.98;;;5.10;99.90;;;;;;5011206;28;20026;-42
2021/11/14 04:28:32;;;;;;;19.35;11.07;;;5.20;99.90;;;;;;5011740;28;20545;-41
2021/11/14 04:30:57;;;;;;;21.17;10.90;;;5.10;99.90;;;;;;5015408;28;20646;-41
2021/11/14 04:33:23;;;;;;;26.40;11.40;;;5.10;99.90;;;;;;5014963;28;20054;-38
2021/11/14 04:35:49;;;;;;;23.40;12.15;;;5.10;99.90;;;;;;5015202;28;20036;-40
2021/11/14 04:38:15;;;;;;;18.77;10.90;;;5.10;99.90;;;;;;5015272;28;20026;-43
2021/11/14 04:40:42;;;;;;;22.30;11.23;;;5.10;99.90;;;;;;5014742;28;20041;-36
2021/11/14 04:43:10;;;;;;;25.13;11.75;;;5.10;99.90;;;;;;5015586;28;20045;-38
2021/11/14 04:45:36;;;;;;;23.85;12.00;;;5.10;99.90;;;;;;5015044;28;20033;-38
2021/11/14 04:48:03;;;;;;;18.50;10.35;;;5.10;99.90;;;;;;5014935;28;20477;-41
2021/11/14 04:50:29;;;;;;;19.60;11.13;;;5.10;99.90;;;;;;5015003;28;20033;-42
2021/11/14 04:52:55;;;;;;;21.75;11.52;;;5.10;99.90;;;;;;5015066;28;20038;-42
2021/11/14 04:55:21;;;;;;;21.88;11.15;;;5.10;99.90;;;;;;5014117;28;20104;-41
2021/11/14 04:57:50;;;;;;;17.23;9.57;;;5.10;99.90;;;;;;5014861;28;20080;-39
2021/11/14 05:00:18;;;;;;;21.52;11.25;;;5.10;99.90;;;;;;5015069;28;20026;-38
2021/11/14 05:02:44;;;;;;;21.02;11.18;;;5.10;99.90;;;;;;5014795;28;20096;-37
2021/11/14 05:05:10;;;;;;;18.00;10.25;;;5.10;99.90;;;;;;5014760;28;20117;-39
2021/11/14 05:07:35;;;;;;;19.98;10.25;;;5.00;99.90;;;;;;5015120;28;20093;-37
2021/11/14 05:10:01;;;;;;;19.15;10.85;;;5.00;99.90;;;;;;5014264;28;20042;-37
2021/11/14 05:12:26;;;;;;;18.13;9.63;;;5.10;99.90;;;;;;5025506;28;20029;-38
2021/11/14 05:14:52;;;;;;;23.63;10.63;;;5.10;99.90;;;;;;5027661;28;20116;-37
2021/11/14 05:17:17;;;;;;;22.48;10.80;;;5.10;99.90;;;;;;5022918;28;20032;-36
2021/11/14 05:19:43;;;;;;;20.27;9.45;;;5.10;99.90;;;;;;5014782;28;20101;-39
2021/11/14 05:22:08;;;;;;;20.17;9.77;;;5.10;99.90;;;;;;5027360;28;20124;-38
2021/11/14 05:24:34;;;;;;;21.00;10.57;;;5.10;99.90;;;;;;5033089;28;20017;-39
2021/11/14 05:27:00;;;;;;;19.95;9.98;;;5.10;99.90;;;;;;5034124;28;20431;-37
2021/11/14 05:29:26;;;;;;;19.40;10.50;;;5.10;99.90;;;;;;5034527;28;20026;-36
2021/11/14 05:31:51;;;;;;;18.88;9.55;;;5.10;99.90;;;;;;5034375;28;20030;-36
2021/11/14 05:34:17;;;;;;;17.75;9.55;;;5.10;99.90;;;;;;5034228;28;20053;-36
2021/11/14 05:36:43;;;;;;;16.85;9.43;;;5.10;99.90;;;;;;5034243;28;20029;-39
2021/11/14 05:39:08;;;;;;;16.92;9.68;;;5.10;99.90;;;;;;5033080;28;20033;-37
2021/11/14 05:41:34;;;;;;;17.95;9.15;;;5.10;99.90;;;;;;5029130;28;20109;-36
2021/11/14 05:43:59;;;;;;;19.17;11.00;;;5.10;99.90;;;;;;5013758;28;20061;-39
2021/11/14 05:46:25;;;;;;;21.02;10.27;;;5.10;99.90;;;;;;5014442;28;20378;-37
2021/11/14 05:48:52;;;;;;;16.02;9.63;;;5.10;99.90;;;;;;5013722;28;20048;-39
2021/11/14 05:51:18;;;;;;;16.85;9.10;;;5.20;99.90;;;;;;5013893;28;20061;-39
2021/11/14 05:53:43;;;;;;;18.75;9.00;;;5.20;99.90;;;;;;5012755;28;20540;-39
2021/11/14 05:56:09;;;;;;;18.27;9.77;;;5.20;99.90;;;;;;5013647;28;20033;-38
2021/11/14 06:06:03;;;;;;;21.10;9.80;;;5.10;99.90;;;;;;5014066;28;20108;-39
2021/11/14 06:08:29;;;;;;;21.92;10.73;;;5.10;99.90;;;;;;5013090;28;20029;-37
2021/11/14 06:10:55;;;;;;;20.08;8.93;;;5.10;99.90;;;;;;5013915;28;20032;-36
2021/11/14 06:13:23;;;;;;;16.27;9.88;;;5.10;99.90;;;;;;5013734;28;20494;-45
2021/11/14 06:15:49;;;;;;;20.63;10.18;;;5.20;99.90;;;;;;5013046;28;20030;-37
2021/11/14 06:18:15;;;;;;;20.38;10.38;;;5.20;99.90;;;;;;5013656;28;20038;-41
2021/11/14 06:20:40;;;;;;;16.92;9.48;;;5.20;99.90;;;;;;5013818;28;20048;-36
2021/11/14 06:23:07;;;;;;;20.73;10.88;;;5.20;99.90;;;;;;5013415;28;20346;-42
2021/11/14 06:25:33;;;;;;;20.70;11.05;;;5.20;99.90;;;;;;5012215;28;20049;-39
2021/11/14 06:27:58;;;;;;;15.85;8.85;;;5.20;99.90;;;;;;5013571;28;20101;-38
2021/11/14 06:30:24;;;;;;;17.20;8.85;;;5.20;99.90;;;;;;5013470;28;20488;-37
2021/11/14 06:32:50;;;;;;;19.83;10.85;;;5.20;99.90;;;;;;5030200;28;20061;-42
2021/11/14 06:35:16;;;;;;;19.92;10.85;;;5.20;99.90;;;;;;5032855;28;20025;-42
2021/11/14 06:37:41;;;;;;;19.52;10.43;;;5.20;99.90;;;;;;5032641;28;20433;-39
2021/11/14 06:40:07;;;;;;;20.80;10.45;;;5.20;99.90;;;;;;5032194;28;20534;-39
2021/11/14 06:42:34;;;;;;;20.42;10.90;;;5.30;99.90;;;;;;5018736;28;20034;-39
2021/11/14 06:44:59;;;;;;;22.25;10.82;;;5.30;99.90;;;;;;5012812;28;20030;-41
2021/11/14 06:47:25;;;;;;;20.35;10.82;;;5.30;99.90;;;;;;5045130;28;20519;-40
2021/11/14 06:49:52;;;;;;;22.83;11.27;;;5.30;99.90;;;;;;5013223;28;20026;-39
2021/11/14 06:52:18;;;;;;;22.08;10.73;;;5.30;99.90;;;;;;5012404;28;20095;-44
2021/11/14 06:54:44;;;;;;;19.50;10.38;;;5.30;99.90;;;;;;5010564;28;20057;-40
2021/11/14 06:57:10;;;;;;;24.08;11.68;;;5.30;99.90;;;;;;5012557;28;20045;-39
2021/11/14 06:59:38;;;;;;;26.83;11.73;;;5.40;99.90;;;;;;5012498;28;20021;-38
2021/11/14 07:02:06;;;;;;;20.02;10.90;;;5.40;99.90;;;;;;5012937;28;20037;-39
2021/11/14 07:04:31;;;;;;;26.55;12.05;;;5.40;99.90;;;;;;5012578;28;20030;-39
2021/11/14 07:06:57;;;;;;;24.75;12.57;;;5.50;99.90;;;;;;5012346;28;20036;-42
2021/11/14 07:09:22;;;;;;;24.08;12.30;;;5.50;99.90;;;;;;5011605;28;20029;-38
2021/11/14 07:11:50;;;;;;;27.38;12.95;;;5.60;99.90;;;;;;5012360;28;20057;-41
2021/11/14 07:14:15;;;;;;;24.80;12.65;;;5.50;99.90;;;;;;5012310;28;20412;-39
2021/11/14 07:16:41;;;;;;;30.30;13.43;;;5.60;99.90;;;;;;5012334;28;20028;-39
2021/11/14 07:19:06;;;;;;;24.55;13.10;;;5.60;99.90;;;;;;5012213;28;20383;-39
2021/11/14 07:21:32;;;;;;;25.13;12.63;;;5.70;99.90;;;;;;5012312;28;20080;-39
2021/11/14 07:23:58;;;;;;;25.75;11.63;;;5.70;99.90;;;;;;5011326;28;20185;-39
2021/11/14 07:26:23;;;;;;;28.38;13.52;;;5.70;99.90;;;;;;5018943;28;20366;-38
2021/11/14 07:28:49;;;;;;;26.58;13.50;;;5.70;99.90;;;;;;5030132;28;20029;-37
2021/11/14 07:31:14;;;;;;;26.05;13.93;;;5.80;99.90;;;;;;5030642;28;20057;-38
2021/11/14 07:33:40;;;;;;;23.40;12.43;;;5.80;99.90;;;;;;5030886;28;20168;-37
2021/11/14 07:36:05;;;;;;;29.13;15.15;;;5.90;99.90;;;;;;5029186;28;20052;-37
2021/11/14 07:38:31;;;;;;;28.10;14.43;;;5.90;99.90;;;;;;5029124;28;20064;-36
2021/11/14 07:40:57;;;;;;;24.25;13.95;;;5.90;99.90;;;;;;5027479;28;20366;-37
2021/11/14 07:43:22;;;;;;;24.80;12.40;;;6.00;99.90;;;;;;5030081;28;20052;-38
2021/11/14 07:45:48;;;;;;;30.65;14.57;;;6.10;99.90;;;;;;5030267;28;20051;-38
2021/11/14 07:48:13;;;;;;;28.67;13.63;;;6.10;99.90;;;;;;5030061;28;20084;-39
2021/11/14 07:50:40;;;;;;;22.95;11.98;;;6.20;99.90;;;;;;5030051;28;20033;-38
2021/11/14 07:53:06;;;;;;;24.45;12.23;;;6.30;99.90;;;;;;5019354;28;20030;-38
2021/11/14 07:55:32;;;;;;;27.58;13.65;;;6.30;99.90;;;;;;5022038;28;20037;-38
2021/11/14 07:57:59;;;;;;;28.67;14.50;;;6.30;99.90;;;;;;5029974;28;20026;-38
2021/11/14 08:00:25;;;;;;;27.35;13.77;;;6.30;99.90;;;;;;5030536;28;20080;-38
2021/11/14 08:02:51;;;;;;;26.98;13.07;;;6.30;99.90;;;;;;5030859;28;20029;-39
2021/11/14 08:05:18;;;;;;;26.17;14.65;;;6.30;99.90;;;;;;5034165;28;20059;-37
2021/11/14 08:07:45;;;;;;;31.02;14.35;;;6.30;99.90;;;;;;5034154;28;20034;-39
2021/11/14 08:10:13;;;;;;;37.60;17.98;;;6.20;99.90;;;;;;5033089;28;20489;-38
2021/11/14 08:12:39;;;;;;;35.63;17.50;;;6.10;99.90;;;;;;5033860;28;20025;-39
2021/11/14 08:15:06;;;;;;;33.83;17.90;;;6.10;99.90;;;;;;5034452;28;20047;-38
2021/11/14 08:17:31;;;;;;;35.53;17.13;;;6.10;99.90;;;;;;5035152;28;20136;-38
2021/11/14 08:20:00;;;;;;;33.38;17.52;;;6.10;99.90;;;;;;5035096;28;20112;-38
2021/11/14 08:22:29;;;;;;;46.90;23.90;;;6.10;99.90;;;;;;5034982;28;20025;-39
2021/11/14 08:24:55;;;;;;;51.75;22.38;;;6.10;99.90;;;;;;5034015;28;20056;-39
2021/11/14 08:27:22;;;;;;;50.22;23.85;;;6.10;99.90;;;;;;5034939;28;20036;-38
2021/11/14 08:29:50;;;;;;;61.45;28.95;;;6.10;99.90;;;;;;5066741;28;20022;-40
2021/11/14 08:32:16;;;;;;;51.13;25.58;;;6.00;99.90;;;;;;5033444;28;20087;-38
2021/11/14 08:34:41;;;;;;;59.60;27.33;;;6.10;99.90;;;;;;5040912;28;20021;-40
2021/11/14 08:37:07;;;;;;;59.63;28.65;;;6.10;99.90;;;;;;5053371;28;20138;-38
2021/11/14 08:39:32;;;;;;;54.67;26.27;;;6.20;99.90;;;;;;5052500;28;20025;-39
2021/11/14 08:41:59;;;;;;;56.75;25.88;;;6.20;99.90;;;;;;5053363;28;20045;-37
2021/11/14 08:44:27;;;;;;;49.30;20.45;;;6.30;99.90;;;;;;5038279;28;20543;-37
2021/11/14 08:46:54;;;;;;;61.42;29.10;;;6.40;99.90;;;;;;5033340;28;20029;-35
2021/11/14 08:49:20;;;;;;;50.78;23.20;;;6.40;99.90;;;;;;5032405;28;20030;-36
2021/11/14 08:51:45;;;;;;;57.22;27.33;;;6.40;99.90;;;;;;5032929;28;20380;-35
2021/11/14 08:54:11;;;;;;;55.15;26.20;;;6.50;99.90;;;;;;5031307;28;20033;-35
2021/11/14 08:56:38;;;;;;;58.47;31.05;;;6.60;99.90;;;;;;5027599;28;20401;-37
2021/11/14 08:59:04;;;;;;;67.82;30.98;;;6.60;99.90;;;;;;5015362;28;20069;-36
2021/11/14 09:01:30;;;;;;;72.65;32.45;;;6.70;99.90;;;;;;5032920;28;20436;-36
2021/11/14 09:03:56;;;;;;;71.93;32.55;;;6.80;99.90;;;;;;5032997;28;20037;-36
2021/11/14 09:06:22;;;;;;;68.47;31.20;;;6.80;99.90;;;;;;5034224;28;20014;-37
2021/11/14 09:08:48;;;;;;;70.70;31.88;;;7.00;99.90;;;;;;5033245;28;20061;-36
2021/11/14 09:11:14;;;;;;;66.65;31.02;;;7.00;99.90;;;;;;5034064;28;20563;-36
2021/11/14 09:13:39;;;;;;;79.90;35.88;;;7.10;99.90;;;;;;5034166;28;20116;-35
2021/11/14 09:16:06;;;;;;;78.65;35.75;;;7.10;99.90;;;;;;5033329;28;20189;-36
2021/11/14 09:18:32;;;;;;;80.70;37.67;;;7.20;99.90;;;;;;5033970;28;20041;-35
2021/11/14 09:20:58;;;;;;;78.43;37.67;;;7.10;99.90;;;;;;5033972;28;20029;-35
2021/11/14 09:23:27;;;;;;;77.07;37.15;;;7.00;99.90;;;;;;5033058;28;20022;-35
2021/11/14 09:25:53;;;;;;;75.70;36.13;;;7.00;99.90;;;;;;5025192;28;20026;-36
2021/11/14 09:28:18;;;;;;;68.38;31.98;;;7.00;99.90;;;;;;5014095;28;20404;-35
2021/11/14 09:30:48;;;;;;;66.95;29.85;;;7.10;99.90;;;;;;5014387;28;20041;-35
2021/11/14 09:33:15;;;;;;;71.90;33.30;;;7.20;99.90;;;;;;5012644;28;20053;-36
2021/11/14 09:35:40;;;;;;;71.75;34.53;;;7.30;99.90;;;;;;5015642;28;20848;-36
2021/11/14 09:38:07;;;;;;;75.65;35.63;;;7.30;99.90;;;;;;5020242;28;20042;-36
2021/11/14 09:40:34;;;;;;;61.92;31.45;;;7.30;99.90;;;;;;5021408;28;20113;-36
2021/11/14 09:43:01;;;;;;;73.72;35.45;;;7.40;99.90;;;;;;5012961;28;20026;-35
2021/11/14 09:45:31;;;;;;;84.00;40.83;;;7.50;99.90;;;;;;5012943;28;20378;-36
2021/11/14 09:47:58;;;;;;;73.90;36.22;;;7.40;99.90;;;;;;5013047;28;20099;-35
2021/11/14 09:50:25;;;;;;;75.32;37.00;;;7.40;99.90;;;;;;5013079;28;20072;-36
2021/11/14 09:52:56;;;;;;;62.67;30.52;;;7.40;99.90;;;;;;5012976;28;20109;-35
2021/11/14 09:55:22;;;;;;;70.68;32.85;;;7.50;99.90;;;;;;5011986;28;20084;-35
2021/11/14 09:57:49;;;;;;;67.18;32.55;;;7.60;99.90;;;;;;5012655;28;20100;-35
2021/11/14 10:00:17;;;;;;;75.47;38.40;;;7.60;99.90;;;;;;5012797;28;20088;-37
2021/11/14 10:02:43;;;;;;;87.60;40.15;;;7.60;99.90;;;;;;5012855;28;20022;-35
2021/11/14 10:05:11;;;;;;;82.70;39.15;;;7.50;99.90;;;;;;5012481;28;20036;-35
2021/11/14 10:07:37;;;;;;;85.78;40.45;;;7.50;99.90;;;;;;5012588;28;20216;-37
2021/11/14 10:10:08;;;;;;;88.80;41.03;;;7.50;99.90;;;;;;5011689;28;20063;-36
2021/11/14 10:12:36;;;;;;;90.47;44.92;;;7.50;99.90;;;;;;5012750;28;20034;-35
2021/11/14 10:15:14;;;;;;;94.93;44.03;;;7.40;99.90;;;;;;5012463;28;20021;-37
2021/11/14 10:17:46;;;;;;;103.28;45.28;;;7.40;99.90;;;;;;5012331;28;20026;-36
2021/11/14 10:20:23;;;;;;;87.63;43.90;;;7.40;99.90;;;;;;5012560;28;20014;-36
2021/11/14 10:23:01;;;;;;;98.28;44.97;;;7.40;99.90;;;;;;5012383;28;20030;-35
2021/11/14 10:25:28;;;;;;;92.88;43.40;;;7.40;99.90;;;;;;5011427;28;20481;-36
2021/11/14 10:27:57;;;;;;;92.93;43.65;;;7.40;99.90;;;;;;5011283;28;20025;-36
2021/11/14 10:30:27;;;;;;;87.95;41.47;;;7.50;99.90;;;;;;5012163;28;20045;-36
2021/11/14 10:33:04;;;;;;;82.40;41.20;;;7.60;99.90;;;;;;5012056;28;20061;-35
2021/11/14 10:35:32;;;;;;;74.47;36.83;;;7.70;99.90;;;;;;5012233;28;20121;-35
2021/11/14 10:38:03;;;;;;;78.78;36.30;;;7.80;99.90;;;;;;5012118;28;20067;-35
2021/11/14 10:40:32;;;;;;;84.20;40.25;;;8.00;99.90;;;;;;5011145;28;20014;-35
2021/11/14 10:43:01;;;;;;;94.55;42.08;;;8.10;99.90;;;;;;5011851;28;20030;-36
2021/11/14 10:45:29;;;;;;;89.55;42.15;;;8.10;99.90;;;;;;5012039;28;20026;-36
2021/11/14 10:48:06;;;;;;;76.82;38.25;;;8.10;99.90;;;;;;5012251;28;20018;-35
2021/11/14 10:50:38;;;;;;;76.78;37.17;;;8.20;99.90;;;;;;5011986;28;20140;-35
2021/11/14 10:53:10;;;;;;;78.18;35.38;;;8.30;99.90;;;;;;5011794;28;20068;-35
2021/11/14 10:55:46;;;;;;;70.20;33.78;;;8.30;99.90;;;;;;5011195;28;20034;-36
2021/11/14 10:58:14;;;;;;;97.45;44.63;;;8.50;99.90;;;;;;5012214;28;20323;-36
2021/11/14 11:00:44;;;;;;;93.97;44.80;;;8.40;99.90;;;;;;5012380;28;20391;-35
2021/11/14 11:03:10;;;;;;;79.03;36.20;;;8.30;99.90;;;;;;5011414;28;20205;-36
2021/11/14 11:05:37;;;;;;;84.35;39.03;;;8.30;99.90;;;;;;5011681;28;20064;-36
2021/11/14 11:08:12;;;;;;;86.25;40.15;;;8.20;99.90;;;;;;5011733;28;20079;-37
2021/11/14 11:10:52;;;;;;;99.00;42.80;;;8.10;99.90;;;;;;5010811;28;20104;-39
2021/11/14 11:13:30;;;;;;;95.70;44.75;;;8.10;99.90;;;;;;5011478;28;20403;-39
2021/11/14 11:16:03;;;;;;;83.75;38.42;;;8.00;99.90;;;;;;5011579;28;20037;-37
2021/11/14 11:18:29;;;;;;;91.70;43.72;;;8.10;99.90;;;;;;5011307;28;20038;-38
2021/11/14 11:20:58;;;;;;;79.70;38.30;;;8.10;99.90;;;;;;5011838;28;20109;-40
2021/11/14 11:23:25;;;;;;;79.13;37.20;;;8.20;99.90;;;;;;5010393;28;20130;-38
2021/11/14 11:25:57;;;;;;;96.13;44.95;;;8.30;99.90;;;;;;5011385;28;20040;-39
2021/11/14 11:28:32;;;;;;;97.20;43.83;;;8.30;99.90;;;;;;5011133;28;20413;-39
2021/11/14 11:31:10;;;;;;;96.57;45.78;;;8.30;99.90;;;;;;5011372;28;20022;-38
2021/11/14 11:33:39;;;;;;;86.32;38.63;;;8.30;99.90;;;;;;5011246;28;20053;-38
2021/11/14 11:36:07;;;;;;;96.70;44.58;;;8.30;99.90;;;;;;5011189;28;20477;-41
2021/11/14 11:38:34;;;;;;;94.65;44.00;;;8.30;99.90;;;;;;5009949;28;20041;-38
2021/11/14 11:41:03;;;;;;;93.40;44.78;;;8.20;99.90;;;;;;5011300;28;20021;-38
2021/11/14 11:43:30;;;;;;;84.43;40.50;;;8.20;99.90;;;;;;5011070;28;20540;-38
2021/11/14 11:46:13;;;;;;;87.65;39.13;;;8.20;99.90;;;;;;5011336;28;20033;-38
2021/11/14 11:48:46;;;;;;;82.53;38.20;;;8.20;99.90;;;;;;5011123;28;20032;-38
2021/11/14 11:51:19;;;;;;;83.05;37.83;;;8.20;99.90;;;;;;5011074;28;20348;-38
2021/11/14 11:54:09;;;;;;;76.50;37.30;;;8.30;99.90;;;;;;5010189;28;20413;-38
2021/11/14 11:57:03;;;;;;;73.63;34.60;;;8.30;99.90;;;;;;5011166;28;20092;-39
2021/11/14 11:59:35;;;;;;;80.40;36.45;;;8.40;99.90;;;;;;5010585;28;20048;-38
2021/11/14 12:02:11;;;;;;;94.10;40.10;;;8.40;99.90;;;;;;5011055;28;20481;-38
2021/11/14 12:04:40;;;;;;;77.40;37.30;;;8.40;99.90;;;;;;5011126;28;20037;-38
2021/11/14 12:07:16;;;;;;;82.22;38.28;;;8.40;99.90;;;;;;5010877;28;20025;-38
2021/11/14 12:09:58;;;;;;;71.60;32.72;;;8.40;99.90;;;;;;5010232;28;20029;-37
2021/11/14 12:12:38;;;;;;;74.72;34.92;;;8.40;99.90;;;;;;5010731;28;20026;-38
2021/11/14 12:15:15;;;;;;;80.85;37.85;;;8.50;99.90;;;;;;5010912;28;20033;-40
2021/11/14 12:18:00;;;;;;;78.40;35.63;;;8.50;99.90;;;;;;5011006;28;20037;-39
2021/11/14 12:20:30;;;;;;;76.68;34.60;;;8.50;99.90;;;;;;5010618;28;20053;-43
2021/11/14 12:23:03;;;;;;;70.07;32.75;;;8.40;99.90;;;;;;5013040;28;20485;-41
2021/11/14 12:25:34;;;;;;;78.38;37.35;;;8.50;99.90;;;;;;5009249;28;20049;-40
2021/11/14 12:28:11;;;;;;;80.10;37.75;;;8.40;99.90;;;;;;5010905;28;20022;-40
2021/11/14 12:30:46;;;;;;;82.63;37.55;;;8.40;99.90;;;;;;5010760;28;20026;-43
2021/11/14 12:33:26;;;;;;;96.22;41.70;;;8.30;99.90;;;;;;5010540;28;20069;-39
2021/11/14 12:35:58;;;;;;;87.85;41.50;;;8.30;99.90;;;;;;5010891;28;20088;-40
2021/11/14 12:38:31;;;;;;;81.53;37.80;;;8.20;99.90;;;;;;5009721;28;20034;-39
2021/11/14 12:41:02;;;;;;;81.45;37.78;;;8.20;99.90;;;;;;5020655;28;20109;-42
2021/11/14 12:43:31;;;;;;;85.15;38.65;;;8.30;99.90;;;;;;5028833;28;20348;-39
2021/11/14 12:46:09;;;;;;;82.10;38.15;;;8.20;99.90;;;;;;5028981;28;20416;-40